createdAt,value
2023-02-12T00:01:20.884Z,97.50
2023-02-12T00:03:48.573Z,97.36
2023-02-12T00:06:16.446Z,97.42
2023-02-12T00:08:44.246Z,97.38
2023-02-12T00:11:14.898Z,97.21
2023-02-12T00:13:43.504Z,97.29
2023-02-12T00:16:14.872Z,97.76
2023-02-12T00:18:43.376Z,97.67
2023-02-12T00:21:12.019Z,97.69
2023-02-12T00:23:40.556Z,97.73
2023-02-12T00:26:13.775Z,97.66
2023-02-12T00:28:41.903Z,97.92
2023-02-12T00:31:12.402Z,97.79
2023-02-12T00:33:40.418Z,97.85
2023-02-12T00:36:09.432Z,97.75
2023-02-12T00:38:37.161Z,97.46
2023-02-12T00:41:05.249Z,97.45
2023-02-12T00:43:33.075Z,97.54
2023-02-12T00:46:00.891Z,97.45
2023-02-12T00:48:28.721Z,97.49
2023-02-12T00:50:56.472Z,97.71
2023-02-12T00:53:24.110Z,97.75
2023-02-12T00:55:51.846Z,97.77
2023-02-12T00:58:19.632Z,97.84
2023-02-12T01:00:47.379Z,97.76
2023-02-12T01:03:15.604Z,97.96
2023-02-12T01:05:43.559Z,97.79
2023-02-12T01:08:13.296Z,97.87
2023-02-12T01:10:41.857Z,97.94
2023-02-12T01:13:13.597Z,97.90
2023-02-12T01:15:42.462Z,97.88
2023-02-12T01:18:10.141Z,97.79
2023-02-12T01:20:40.302Z,97.65
2023-02-12T01:23:08.046Z,97.61
2023-02-12T01:25:35.607Z,97.58
2023-02-12T01:28:03.375Z,97.86
2023-02-12T01:30:31.201Z,97.86
2023-02-12T01:32:58.912Z,98.01
2023-02-12T01:35:26.498Z,98.15
2023-02-12T01:37:56.306Z,98.23
2023-02-12T01:40:25.177Z,98.28
2023-02-12T01:42:52.877Z,98.04
2023-02-12T01:45:23.509Z,98.07
2023-02-12T01:47:51.270Z,98.03
2023-02-12T01:50:20.682Z,98.18
2023-02-12T01:52:53.728Z,98.37
2023-02-12T01:55:22.139Z,98.06
2023-02-12T01:57:50.115Z,98.05
2023-02-12T02:00:21.475Z,98.14
2023-02-12T02:02:53.308Z,98.15
2023-02-12T02:05:47.476Z,97.92
2023-02-12T02:08:15.066Z,97.94
2023-02-12T02:10:42.957Z,97.87
2023-02-12T02:13:10.673Z,97.86
2023-02-12T02:15:45.509Z,98.00
2023-02-12T02:18:26.854Z,97.96
2023-02-12T02:21:03.256Z,97.86
2023-02-12T02:23:51.501Z,97.62
2023-02-12T02:26:22.175Z,97.67
2023-02-12T02:29:00.928Z,97.83
2023-02-12T02:31:47.287Z,97.53
2023-02-12T02:34:28.962Z,97.50
2023-02-12T02:37:08.672Z,97.64
2023-02-12T02:39:41.448Z,97.73
2023-02-12T02:42:44.797Z,97.75
2023-02-12T02:45:28.082Z,97.58
2023-02-12T02:48:02.216Z,97.52
2023-02-12T02:50:34.443Z,97.39
2023-02-12T02:53:07.996Z,97.31
2023-02-12T02:55:40.619Z,97.56
2023-02-12T02:58:16.795Z,97.45
2023-02-12T03:01:08.171Z,97.45
2023-02-12T03:04:05.600Z,97.49
2023-02-12T03:06:40.997Z,97.46
2023-02-12T03:09:29.557Z,97.47
2023-02-12T03:12:03.410Z,97.39
2023-02-12T03:14:36.831Z,97.25
2023-02-12T03:17:13.826Z,97.36
2023-02-12T03:19:47.581Z,97.37
2023-02-12T03:22:23.320Z,97.29
2023-02-12T03:25:09.049Z,97.14
2023-02-12T03:27:42.701Z,97.18
2023-02-12T03:30:11.536Z,97.21
2023-02-12T03:33:00.941Z,97.20
2023-02-12T03:35:35.578Z,97.03
2023-02-12T03:38:14.541Z,96.91
2023-02-12T03:40:59.515Z,96.90
2023-02-12T03:43:34.307Z,96.86
2023-02-12T03:46:28.376Z,96.82
2023-02-12T03:49:34.317Z,96.72
2023-02-12T03:52:03.622Z,96.74
2023-02-12T03:54:31.810Z,96.78
2023-02-12T03:57:13.821Z,96.72
2023-02-12T03:59:42.008Z,96.54
2023-02-12T04:02:10.006Z,96.51
2023-02-12T04:04:38.460Z,96.66
2023-02-12T04:07:06.136Z,96.77
2023-02-12T04:09:33.933Z,96.67
2023-02-12T04:12:20.477Z,96.61
2023-02-12T04:15:06.855Z,96.41
2023-02-12T04:17:49.500Z,96.60
2023-02-12T04:20:23.480Z,96.69
2023-02-12T04:22:59.964Z,96.88
2023-02-12T04:25:43.636Z,96.74
2023-02-12T04:28:38.996Z,96.55
2023-02-12T04:31:33.223Z,96.38
2023-02-12T04:34:29.300Z,96.19
2023-02-12T04:37:02.805Z,96.45
2023-02-12T04:39:35.841Z,96.41
2023-02-12T04:42:03.897Z,96.27
2023-02-12T04:44:38.216Z,96.35
2023-02-12T04:47:05.780Z,96.31
2023-02-12T04:49:33.697Z,96.10
2023-02-12T04:52:01.355Z,96.06
2023-02-12T04:54:29.234Z,95.96
2023-02-12T04:56:56.815Z,95.85
2023-02-12T04:59:24.591Z,95.62
2023-02-12T05:01:52.607Z,95.55
2023-02-12T05:04:20.331Z,95.50
2023-02-12T05:06:48.174Z,95.62
2023-02-12T05:09:19.543Z,95.68
2023-02-12T05:11:47.286Z,95.59
2023-02-12T05:14:15.533Z,95.72
2023-02-12T05:16:43.375Z,95.55
2023-02-12T05:19:11.069Z,95.50
2023-02-12T05:21:38.816Z,95.42
2023-02-12T05:24:06.950Z,95.19
2023-02-12T05:26:35.301Z,94.96
2023-02-12T05:29:03.767Z,94.90
2023-02-12T05:31:31.464Z,94.90
2023-02-12T05:33:59.422Z,94.98
2023-02-12T05:36:27.493Z,94.97
2023-02-12T05:38:58.952Z,94.95
2023-02-12T05:41:27.265Z,94.94
2023-02-12T05:43:54.899Z,94.85
2023-02-12T05:46:22.607Z,94.83
2023-02-12T05:48:50.620Z,95.14
2023-02-12T05:51:21.314Z,95.29
2023-02-12T05:53:50.865Z,95.14
2023-02-12T05:56:22.811Z,94.92
2023-02-12T05:58:56.728Z,94.85
2023-02-12T06:01:33.416Z,94.77
2023-02-12T06:04:03.051Z,94.45
2023-02-12T06:06:31.917Z,94.23
2023-02-12T06:09:00.068Z,93.91
2023-02-12T06:11:28.179Z,93.44
2023-02-12T06:13:56.029Z,93.15
2023-02-12T06:16:26.645Z,92.91
2023-02-12T06:18:56.332Z,92.56
2023-02-12T06:21:26.254Z,92.25
2023-02-12T06:23:53.963Z,92.06
2023-02-12T06:26:23.136Z,91.76
2023-02-12T06:28:51.464Z,91.66
2023-02-12T06:31:31.398Z,91.41
2023-02-12T06:34:03.033Z,91.52
2023-02-12T06:36:30.813Z,91.48
2023-02-12T06:38:58.660Z,91.44
2023-02-12T06:41:26.337Z,91.45
2023-02-12T06:43:54.094Z,91.26
2023-02-12T06:46:22.164Z,91.30
2023-02-12T06:48:55.094Z,91.25
2023-02-12T06:51:23.317Z,91.44
2023-02-12T06:53:52.506Z,91.52
2023-02-12T06:56:21.678Z,91.51
2023-02-12T06:58:57.783Z,91.56
2023-02-12T07:01:27.446Z,91.64
2023-02-12T07:03:57.628Z,91.52
2023-02-12T07:06:27.058Z,91.45
2023-02-12T07:08:58.512Z,91.27
2023-02-12T07:11:28.606Z,90.97
2023-02-12T07:13:56.371Z,91.13
2023-02-12T07:16:24.064Z,90.82
2023-02-12T07:18:51.906Z,90.66
2023-02-12T07:21:20.528Z,90.68
2023-02-12T07:23:51.459Z,90.71
2023-02-12T07:26:21.241Z,90.61
2023-02-12T07:28:50.469Z,90.32
2023-02-12T07:31:23.153Z,89.91
2023-02-12T07:33:58.486Z,90.26
2023-02-12T07:36:29.245Z,90.24
2023-02-12T07:38:57.510Z,90.04
2023-02-12T07:41:27.979Z,89.06
2023-02-12T07:43:56.656Z,88.95
2023-02-12T07:46:28.458Z,87.60
2023-02-12T07:48:58.018Z,86.77
2023-02-12T07:51:27.290Z,87.29
2023-02-12T07:53:55.058Z,86.07
2023-02-12T07:56:27.936Z,86.52
2023-02-12T07:58:55.555Z,86.94
2023-02-12T08:01:26.045Z,85.24
2023-02-12T08:03:53.975Z,85.89
2023-02-12T08:06:24.388Z,86.77
2023-02-12T08:08:52.939Z,86.92
2023-02-12T08:11:21.629Z,86.58
2023-02-12T08:13:49.504Z,86.15
2023-02-12T08:16:19.756Z,85.91
2023-02-12T08:18:47.524Z,85.14
2023-02-12T08:21:19.429Z,84.69
2023-02-12T08:23:48.108Z,83.89
2023-02-12T08:26:19.402Z,84.63
2023-02-12T08:28:50.273Z,84.35
2023-02-12T08:31:21.306Z,83.95
2023-02-12T08:33:50.189Z,84.13
2023-02-12T08:36:20.478Z,83.95
2023-02-12T08:38:48.600Z,83.65
2023-02-12T08:41:22.612Z,83.58
2023-02-12T08:43:53.256Z,83.34
2023-02-12T08:46:24.069Z,82.91
2023-02-12T08:48:54.872Z,82.90
2023-02-12T08:51:25.687Z,81.74
2023-02-12T08:53:56.423Z,81.90
2023-02-12T08:56:24.834Z,81.02
2023-02-12T08:58:53.157Z,80.78
2023-02-12T09:01:23.368Z,78.93
2023-02-12T09:03:51.718Z,78.56
2023-02-12T09:06:21.460Z,79.34
2023-02-12T09:08:49.883Z,79.04
2023-02-12T09:11:20.854Z,80.19
2023-02-12T09:13:48.527Z,80.83
2023-02-12T09:16:16.508Z,81.21
2023-02-12T09:18:44.547Z,81.07
2023-02-12T09:21:14.273Z,79.97
2023-02-12T09:23:42.574Z,80.14
2023-02-12T09:26:12.756Z,80.40
2023-02-12T09:28:40.889Z,80.07
2023-02-12T09:31:20.587Z,79.18
2023-02-12T09:33:52.211Z,79.65
2023-02-12T09:36:22.132Z,79.99
2023-02-12T09:38:50.461Z,80.51
2023-02-12T09:41:48.398Z,80.81
2023-02-12T09:44:21.740Z,78.84
2023-02-12T09:47:06.938Z,80.01
2023-02-12T09:49:59.066Z,80.16
2023-02-12T09:52:29.168Z,78.87
2023-02-12T09:54:58.060Z,78.53
2023-02-12T09:57:30.981Z,79.30
2023-02-12T10:00:01.945Z,77.52
2023-02-12T10:02:29.772Z,77.46
2023-02-12T10:05:01.939Z,77.53
2023-02-12T10:08:08.475Z,77.88
2023-02-12T10:10:50.884Z,77.40
2023-02-12T10:13:46.492Z,77.70
2023-02-12T10:16:38.522Z,76.47
2023-02-12T10:19:14.244Z,76.97
2023-02-12T10:21:47.596Z,77.21
2023-02-12T10:24:21.017Z,77.15
2023-02-12T10:26:50.119Z,77.89
2023-02-12T10:29:21.881Z,76.36
2023-02-12T10:34:35.203Z,76.29
2023-02-12T10:37:28.930Z,76.20
2023-02-12T10:40:03.016Z,74.58
2023-02-12T10:42:40.813Z,74.37
2023-02-12T10:45:16.670Z,74.09
2023-02-12T10:47:46.835Z,74.79
2023-02-12T10:50:57.672Z,75.52
2023-02-12T10:53:31.847Z,76.24
2023-02-12T10:56:11.871Z,75.90
2023-02-12T10:58:42.164Z,73.83
2023-02-12T11:01:27.383Z,74.54
2023-02-12T11:03:56.929Z,74.50
2023-02-12T11:06:27.192Z,75.25
2023-02-12T11:08:55.268Z,76.09
2023-02-12T11:11:28.869Z,76.50
2023-02-12T11:14:21.057Z,76.20
2023-02-12T11:16:59.147Z,75.55
2023-02-12T11:19:30.207Z,74.60
2023-02-12T11:22:15.034Z,74.04
2023-02-12T11:24:43.004Z,74.35
2023-02-12T11:27:17.308Z,75.25
2023-02-12T11:29:48.014Z,72.53
2023-02-12T11:32:18.412Z,73.26
2023-02-12T11:35:07.089Z,72.00
2023-02-12T11:37:40.903Z,73.49
2023-02-12T11:40:17.331Z,72.94
2023-02-12T11:42:50.662Z,68.33
2023-02-12T11:45:21.700Z,66.15
2023-02-12T11:47:51.224Z,66.29
2023-02-12T11:50:27.353Z,66.70
2023-02-12T11:53:00.446Z,67.02
2023-02-12T11:55:33.745Z,67.39
2023-02-12T11:58:03.464Z,67.64
2023-02-12T12:00:43.035Z,68.90
2023-02-12T12:03:26.981Z,68.33
2023-02-12T12:06:02.762Z,66.53
2023-02-12T12:08:36.868Z,66.17
2023-02-12T12:11:33.691Z,66.37
2023-02-12T12:14:24.188Z,64.71
2023-02-12T12:17:10.571Z,64.72
2023-02-12T12:20:03.371Z,65.91
2023-02-12T12:22:57.688Z,64.69
2023-02-12T12:25:46.223Z,61.76
2023-02-12T12:28:26.111Z,62.62
2023-02-12T12:31:06.209Z,61.18
2023-02-12T12:34:03.398Z,59.02
2023-02-12T12:36:51.722Z,59.14
2023-02-12T12:39:34.794Z,59.87
2023-02-12T12:42:18.589Z,59.69
2023-02-12T12:45:07.982Z,56.54
2023-02-12T12:48:03.447Z,54.70
2023-02-12T12:50:49.926Z,53.92
2023-02-12T12:53:55.269Z,51.73
2023-02-12T12:56:50.774Z,50.01
2023-02-12T12:59:21.646Z,49.38
2023-02-12T13:02:14.454Z,48.84
2023-02-12T13:05:11.899Z,43.08
2023-02-12T13:07:42.246Z,41.73
2023-02-12T13:10:31.390Z,42.23
2023-02-12T13:13:18.064Z,39.24
2023-02-12T13:16:21.796Z,38.20
2023-02-12T13:18:55.320Z,40.01
2023-02-12T13:21:55.457Z,37.22
2023-02-12T13:24:41.462Z,38.33
2023-02-12T13:27:22.319Z,39.53
2023-02-12T13:29:54.746Z,41.61
2023-02-12T13:32:30.563Z,43.25
2023-02-12T13:35:00.017Z,43.79
2023-02-12T13:37:38.188Z,46.08
2023-02-12T13:40:08.948Z,47.69
2023-02-12T13:42:52.356Z,48.30
2023-02-12T13:45:30.891Z,47.53
2023-02-12T13:48:17.153Z,48.11
2023-02-12T13:50:47.378Z,49.63
2023-02-12T13:53:30.905Z,51.13
2023-02-12T13:56:07.754Z,55.26
2023-02-12T13:58:35.464Z,58.30
2023-02-12T14:01:06.132Z,61.15
2023-02-12T14:03:35.436Z,62.32
2023-02-12T14:06:21.522Z,63.21
2023-02-12T14:09:09.904Z,63.93
2023-02-12T14:11:50.625Z,63.42
2023-02-12T14:14:47.117Z,63.60
2023-02-12T14:17:30.166Z,63.24
2023-02-12T14:20:26.158Z,63.00
2023-02-12T14:23:21.661Z,63.16
2023-02-12T14:26:02.394Z,63.27
2023-02-12T14:28:52.224Z,63.28
2023-02-12T14:31:20.087Z,63.26
2023-02-12T14:33:51.092Z,62.71
2023-02-12T14:36:33.848Z,62.28
2023-02-12T14:39:20.173Z,62.22
2023-02-12T14:41:49.985Z,62.01
2023-02-12T14:44:17.474Z,61.68
2023-02-12T14:46:51.960Z,61.95
2023-02-12T14:49:28.780Z,62.36
2023-02-12T14:52:11.653Z,63.22
2023-02-12T14:54:58.632Z,64.18
2023-02-12T14:57:42.596Z,64.83
2023-02-12T15:00:16.639Z,65.43
2023-02-12T15:02:59.943Z,65.95
2023-02-12T15:05:52.261Z,66.42
2023-02-12T15:08:31.936Z,67.56
2023-02-12T15:11:03.933Z,68.20
2023-02-12T15:13:57.770Z,69.14
2023-02-12T15:16:35.534Z,69.30
2023-02-12T15:19:24.109Z,69.54
2023-02-12T15:21:52.879Z,70.21
2023-02-12T15:24:23.256Z,70.76
2023-02-12T15:26:54.300Z,71.12
2023-02-12T15:29:40.871Z,71.74
2023-02-12T15:32:17.960Z,72.11
2023-02-12T15:34:49.265Z,72.24
2023-02-12T15:37:30.071Z,72.48
2023-02-12T15:40:00.610Z,72.83
2023-02-12T15:42:36.879Z,73.06
2023-02-12T15:45:11.400Z,73.37
2023-02-12T15:47:39.372Z,73.72
2023-02-12T15:50:12.228Z,74.10
2023-02-12T15:52:44.784Z,74.59
2023-02-12T15:55:25.073Z,74.93
2023-02-12T15:57:59.520Z,75.46
2023-02-12T16:00:27.115Z,76.15
2023-02-12T16:02:54.965Z,76.42
2023-02-12T16:05:23.393Z,76.72
2023-02-12T16:07:51.515Z,77.46
2023-02-12T16:10:20.798Z,77.74
2023-02-12T16:12:50.118Z,78.02
2023-02-12T16:15:32.677Z,78.45
2023-02-12T16:18:00.393Z,78.84
2023-02-12T16:20:29.514Z,79.25
2023-02-12T16:22:57.438Z,79.46
2023-02-12T16:25:29.672Z,79.95
2023-02-12T16:28:07.718Z,80.42
2023-02-12T16:30:40.434Z,80.90
2023-02-12T16:33:38.856Z,81.07
2023-02-12T16:36:20.137Z,81.50
2023-02-12T16:38:56.744Z,81.66
2023-02-12T16:41:30.885Z,81.85
2023-02-12T16:44:02.347Z,81.86
2023-02-12T16:46:33.607Z,82.14
2023-02-12T16:49:03.025Z,82.59
2023-02-12T16:51:33.864Z,83.56
2023-02-12T16:54:03.527Z,84.01
2023-02-12T16:56:34.256Z,84.51
2023-02-12T16:59:01.956Z,84.92
2023-02-12T17:01:32.428Z,84.89
2023-02-12T17:04:01.131Z,85.02
2023-02-12T17:06:31.147Z,84.79
2023-02-12T17:08:59.816Z,84.97
2023-02-12T17:11:28.634Z,84.99
2023-02-12T17:13:56.577Z,85.21
2023-02-12T17:16:30.891Z,85.28
2023-02-12T17:19:00.589Z,85.33
2023-02-12T17:21:33.735Z,85.38
2023-02-12T17:24:01.792Z,85.35
2023-02-12T17:26:29.727Z,85.71
2023-02-12T17:28:57.339Z,85.67
2023-02-12T17:31:25.243Z,85.82
2023-02-12T17:33:52.870Z,85.95
2023-02-12T17:36:20.505Z,85.97
2023-02-12T17:38:48.212Z,86.11
2023-02-12T17:41:16.146Z,86.14
2023-02-12T17:43:44.313Z,86.23
2023-02-12T17:46:21.408Z,86.76
2023-02-12T17:48:49.080Z,87.32
2023-02-12T17:51:17.527Z,87.83
2023-02-12T17:53:45.485Z,88.17
2023-02-12T17:56:19.563Z,88.14
2023-02-12T17:58:48.448Z,87.97
2023-02-12T18:01:19.105Z,87.57
2023-02-12T18:03:47.027Z,87.68
2023-02-12T18:06:22.807Z,88.29
2023-02-12T18:08:50.515Z,87.91
2023-02-12T18:11:20.300Z,87.75
2023-02-12T18:13:48.499Z,87.69
2023-02-12T18:16:16.338Z,87.47
2023-02-12T18:18:43.902Z,87.61
2023-02-12T18:21:14.322Z,87.26
2023-02-12T18:23:42.921Z,87.23
2023-02-12T18:26:17.542Z,87.23
2023-02-12T18:28:45.714Z,87.28
2023-02-12T18:31:14.012Z,87.43
2023-02-12T18:33:42.022Z,87.71
2023-02-12T18:36:14.511Z,87.71
2023-02-12T18:38:43.180Z,87.77
2023-02-12T18:41:17.533Z,87.75
2023-02-12T18:43:46.276Z,88.00
2023-02-12T18:46:19.419Z,88.16
2023-02-12T18:48:48.025Z,88.22
2023-02-12T18:51:21.880Z,88.06
2023-02-12T18:54:00.943Z,88.00
2023-02-12T18:56:31.563Z,88.18
2023-02-12T18:59:03.175Z,88.46
2023-02-12T19:01:32.454Z,88.88
2023-02-12T19:04:03.197Z,88.95
2023-02-12T19:06:32.789Z,88.86
2023-02-12T19:09:02.561Z,88.97
2023-02-12T19:11:31.822Z,89.09
2023-02-12T19:13:59.647Z,89.17
2023-02-12T19:16:27.544Z,89.13
2023-02-12T19:18:57.080Z,89.27
2023-02-12T19:21:26.553Z,89.17
2023-02-12T19:23:55.709Z,89.40
2023-02-12T19:26:24.126Z,89.53
2023-02-12T19:28:52.983Z,89.58
2023-02-12T19:31:28.229Z,89.83
2023-02-12T19:33:58.416Z,89.51
2023-02-12T19:36:27.701Z,89.80
2023-02-12T19:38:55.732Z,90.43
2023-02-12T19:41:25.425Z,90.71
2023-02-12T19:43:54.607Z,90.85
2023-02-12T19:46:22.558Z,90.90
2023-02-12T19:48:58.099Z,90.99
2023-02-12T19:51:27.086Z,90.99
2023-02-12T19:53:55.163Z,91.31
2023-02-12T19:56:23.118Z,90.97
2023-02-12T19:58:51.451Z,90.79
2023-02-12T20:01:21.064Z,90.65
2023-02-12T20:03:49.639Z,90.33
2023-02-12T20:06:23.488Z,90.26
2023-02-12T20:08:51.887Z,90.38
2023-02-12T20:11:23.700Z,90.39
2023-02-12T20:13:51.885Z,90.35
2023-02-12T20:16:22.916Z,90.28
2023-02-12T20:18:54.442Z,90.30
2023-02-12T20:21:26.169Z,90.29
2023-02-12T20:23:54.584Z,90.43
2023-02-12T20:26:23.592Z,90.58
2023-02-12T20:28:51.666Z,90.91
2023-02-12T20:31:23.182Z,91.22
2023-02-12T20:33:58.710Z,91.77
2023-02-12T20:36:29.677Z,91.93
2023-02-12T20:38:59.290Z,91.92
2023-02-12T20:41:27.906Z,91.78
2023-02-12T20:43:58.990Z,91.58
2023-02-12T20:46:28.012Z,91.70
2023-02-12T20:48:56.768Z,91.78
2023-02-12T20:51:26.639Z,91.62
2023-02-12T20:53:55.264Z,91.60
2023-02-12T20:56:25.753Z,91.57
2023-02-12T20:58:53.672Z,91.47
2023-02-12T21:01:24.322Z,91.40
2023-02-12T21:03:54.593Z,91.47
2023-02-12T21:06:24.164Z,91.48
2023-02-12T21:08:51.848Z,91.46
2023-02-12T21:11:22.257Z,91.40
2023-02-12T21:14:18.563Z,91.59
2023-02-12T21:16:47.250Z,91.72
2023-02-12T21:19:14.890Z,91.72
2023-02-12T21:21:43.709Z,91.68
2023-02-12T21:24:17.156Z,91.74
2023-02-12T21:26:44.790Z,91.50
2023-02-12T21:29:12.418Z,91.57
2023-02-12T21:31:42.661Z,91.48
2023-02-12T21:34:14.150Z,91.43
2023-02-12T21:36:43.383Z,91.56
2023-02-12T21:39:14.324Z,91.36
2023-02-12T21:41:43.021Z,91.35
2023-02-12T21:44:14.162Z,91.50
2023-02-12T21:46:42.236Z,91.43
2023-02-12T21:49:12.173Z,91.49
2023-02-12T21:51:44.769Z,91.21
2023-02-12T21:54:15.087Z,91.16
2023-02-12T21:56:44.970Z,91.13
2023-02-12T21:59:13.509Z,91.12
2023-02-12T22:01:45.927Z,91.06
2023-02-12T22:04:14.384Z,91.11
2023-02-12T22:06:45.101Z,91.20
2023-02-12T22:09:14.914Z,91.17
2023-02-12T22:11:42.978Z,91.17
2023-02-12T22:14:14.205Z,91.07
2023-02-12T22:16:41.891Z,91.10
2023-02-12T22:19:09.663Z,91.28
2023-02-12T22:21:39.501Z,91.53
2023-02-12T22:24:09.603Z,91.55
2023-02-12T22:26:37.299Z,91.44
2023-02-12T22:29:07.149Z,91.38
2023-02-12T22:31:37.252Z,91.24
2023-02-12T22:34:07.957Z,91.13
2023-02-12T22:36:37.126Z,91.16
2023-02-12T22:39:05.530Z,91.10
2023-02-12T22:41:33.643Z,91.11
2023-02-12T22:44:02.780Z,91.21
2023-02-12T22:46:31.028Z,91.36
2023-02-12T22:48:58.985Z,91.36
2023-02-12T22:51:29.860Z,91.23
2023-02-12T22:53:58.288Z,91.49
2023-02-12T22:56:26.989Z,91.64
2023-02-12T22:59:00.341Z,91.86
2023-02-12T23:01:29.302Z,92.20
2023-02-12T23:03:57.437Z,92.20
2023-02-12T23:06:28.180Z,92.07
2023-02-12T23:08:59.400Z,91.78
2023-02-12T23:11:28.987Z,91.88
2023-02-12T23:13:57.206Z,91.85
2023-02-12T23:16:25.389Z,91.95
2023-02-12T23:18:58.208Z,92.03
2023-02-12T23:21:28.119Z,91.94
2023-02-12T23:23:56.271Z,91.86
2023-02-12T23:26:23.885Z,91.87
2023-02-12T23:28:51.518Z,92.04
2023-02-12T23:31:19.494Z,92.05
2023-02-12T23:33:47.548Z,91.96
2023-02-12T23:36:15.503Z,92.27
2023-02-12T23:38:43.108Z,92.57
2023-02-12T23:41:10.944Z,92.65
2023-02-12T23:43:38.540Z,92.57
2023-02-12T23:46:06.285Z,92.54
2023-02-12T23:48:34.170Z,92.47
2023-02-12T23:51:01.936Z,92.65
2023-02-12T23:53:29.699Z,92.63
2023-02-12T23:55:57.345Z,92.48
2023-02-12T23:58:24.977Z,92.59
